Airfield :
LOGIN :

Register | Disclaimer

   EN    FR    IT 

 










Legend :    VFR   Marginal VFR   IFR   Intensive IFR   Very Intensive IFR
Visi :
Ceiling :
>= 8 km
>= 3000ft
5 to 8 km
1000 to 3000 ft
1500m to 5 km
500 to 1000 ft
800 to 1500m
200 to 500 ft
< 800m
< 200 ft
Symbols :   Thunderstorms  Fog  Heavy snow  Heavy precipitations  Wind > 20 kt
SIGMETs :     Misc.  Thunderstorms  Icing  Turbulence  Mountain Waves  Volcanic Ashes







- Airport Elevation : 768 ft
- IATA code : MXP


LIMC - Milano Malpensa

CURRENT METAR :
  • 212150Z 05006KT 9999 BKN080 21/17 Q1014 NOSIG

EXPIRED METARs :
  • 212120Z 06009KT 030V090 9999 SCT070 21/18 Q1014 NOSIG
  • 212050Z 35011KT CAVOK 22/18 Q1013 NOSIG
  • 212020Z 35010KT CAVOK 21/18 Q1013 NOSIG
  • 211950Z 31005KT 9999 SCT090 24/16 Q1013 NOSIG
  • 211920Z 32006KT 280V350 9999 -RA SCT050 BKN090 23/18 Q1013 NOSIG

TAF TAF LIMC
Valid from the 21 at 18:00 until the 23 at 00:00 UTC


211700Z 2118/2224 VRB05KT 9999 SCT040 SCT070
TEMPO 2118/2124 4000 TSRA
TEMPO 2220/2224 4000 TSRA
No reported NOTAMs for that airfield.



MET'MAP, your aeronautical weather chart ! - Copyright ORBIFLY December 2007 - Disclaimer

ORBIFLY MET'MAP TEAM :

Programming & Development : Alexandra Zaïnal
Concept & Development : Baudouin d'Aumeries
Co-Development & Prog : Marc-Olivier Méhu
Technical & hardware support : Manuel Goepfert

Contact : metmap@orbifly.com




SOURCES & CREDITS :

   NOAA